createdAt,value
2019-03-28T00:01:07.879Z,99.90
2019-03-28T00:03:35.853Z,99.90
2019-03-28T00:06:04.009Z,99.90
2019-03-28T00:08:31.908Z,99.90
2019-03-28T00:11:00.241Z,99.90
2019-03-28T00:13:28.530Z,99.90
2019-03-28T00:15:56.984Z,99.90
2019-03-28T00:18:33.815Z,99.90
2019-03-28T00:21:32.233Z,99.90
2019-03-28T00:24:09.136Z,99.90
2019-03-28T00:26:37.511Z,99.90
2019-03-28T00:29:05.267Z,99.90
2019-03-28T00:31:32.932Z,99.90
2019-03-28T00:34:00.915Z,99.90
2019-03-28T00:36:29.436Z,99.90
2019-03-28T00:38:57.730Z,99.90
2019-03-28T00:41:25.755Z,99.90
2019-03-28T00:43:54.245Z,99.90
2019-03-28T00:46:22.432Z,99.90
2019-03-28T00:48:50.911Z,99.90
2019-03-28T00:51:19.644Z,99.90
2019-03-28T00:53:48.018Z,99.90
2019-03-28T00:56:16.302Z,99.90
2019-03-28T00:58:47.208Z,99.90
2019-03-28T01:01:23.631Z,99.90
2019-03-28T01:03:52.350Z,99.90
2019-03-28T01:06:20.447Z,99.90
2019-03-28T01:08:48.738Z,99.90
2019-03-28T01:11:17.381Z,99.90
2019-03-28T01:13:45.675Z,99.90
2019-03-28T01:16:14.256Z,99.90
2019-03-28T01:18:42.318Z,99.90
2019-03-28T01:21:10.374Z,99.90
2019-03-28T01:23:38.223Z,99.90
2019-03-28T01:26:06.236Z,99.90
2019-03-28T01:28:34.266Z,99.90
2019-03-28T01:31:02.714Z,99.90
2019-03-28T01:33:31.486Z,99.90
2019-03-28T01:35:59.351Z,99.90
2019-03-28T01:38:27.967Z,99.90
2019-03-28T01:40:56.694Z,99.90
2019-03-28T01:43:24.466Z,99.90
2019-03-28T01:45:52.226Z,99.90
2019-03-28T01:48:20.037Z,99.90
2019-03-28T01:50:48.271Z,99.90
2019-03-28T01:53:16.278Z,99.90
2019-03-28T01:55:44.195Z,99.90
2019-03-28T01:58:11.988Z,99.90
2019-03-28T02:00:39.714Z,99.90
2019-03-28T02:03:07.563Z,99.90
2019-03-28T02:05:35.315Z,99.90
2019-03-28T02:08:04.170Z,99.90
2019-03-28T02:10:32.034Z,99.90
2019-03-28T02:13:00.290Z,99.90
2019-03-28T02:15:28.730Z,99.90
2019-03-28T02:18:03.487Z,99.90
2019-03-28T02:20:33.989Z,99.90
2019-03-28T02:23:02.598Z,99.90
2019-03-28T02:25:35.495Z,99.90
2019-03-28T02:28:04.960Z,99.90
2019-03-28T02:30:52.596Z,99.90
2019-03-28T02:33:26.548Z,99.90
2019-03-28T02:35:55.116Z,99.90
2019-03-28T02:38:28.574Z,99.90
2019-03-28T02:40:59.062Z,99.90
2019-03-28T02:43:27.737Z,99.90
2019-03-28T02:45:56.594Z,99.90
2019-03-28T02:48:25.732Z,99.90
2019-03-28T02:50:54.561Z,99.90
2019-03-28T02:53:22.235Z,99.90
2019-03-28T02:55:50.280Z,99.90
2019-03-28T02:58:19.946Z,99.90
2019-03-28T03:00:48.135Z,99.90
2019-03-28T03:03:16.749Z,99.90
2019-03-28T03:05:44.758Z,99.90
2019-03-28T03:08:12.666Z,99.90
2019-03-28T03:10:40.418Z,99.90
2019-03-28T03:13:08.236Z,99.90
2019-03-28T03:15:35.929Z,99.90
2019-03-28T03:18:03.704Z,99.90
2019-03-28T03:20:31.695Z,99.90
2019-03-28T03:22:59.825Z,99.90
2019-03-28T03:25:27.973Z,99.90
2019-03-28T03:27:58.905Z,99.90
2019-03-28T03:30:26.020Z,99.90
2019-03-28T03:32:53.728Z,99.90
2019-03-28T03:35:21.900Z,99.90
2019-03-28T03:37:49.543Z,99.90
2019-03-28T03:40:17.453Z,99.90
2019-03-28T03:42:45.307Z,99.90
2019-03-28T03:45:13.426Z,99.90
2019-03-28T03:47:41.138Z,99.90
2019-03-28T03:50:09.185Z,99.90
2019-03-28T03:52:36.919Z,99.90
2019-03-28T03:55:04.774Z,99.90
2019-03-28T03:57:32.474Z,99.90
2019-03-28T04:00:00.598Z,99.90
2019-03-28T04:02:28.415Z,99.90
2019-03-28T04:04:56.948Z,99.90
2019-03-28T04:07:24.899Z,99.90
2019-03-28T04:09:52.642Z,99.90
2019-03-28T04:12:20.407Z,99.90
2019-03-28T04:14:48.160Z,99.90
2019-03-28T04:17:16.055Z,99.90
2019-03-28T04:19:44.195Z,99.90
2019-03-28T04:22:12.056Z,99.90
2019-03-28T04:24:39.740Z,99.90
2019-03-28T04:27:07.996Z,99.90
2019-03-28T04:29:35.741Z,99.90
2019-03-28T04:32:03.566Z,99.90
2019-03-28T04:34:31.312Z,99.90
2019-03-28T04:36:59.013Z,99.90
2019-03-28T04:39:26.487Z,99.90
2019-03-28T04:41:54.314Z,99.90
2019-03-28T04:44:21.920Z,99.90
2019-03-28T04:46:49.425Z,99.90
2019-03-28T04:49:16.892Z,99.90
2019-03-28T04:51:44.458Z,99.90
2019-03-28T04:54:11.926Z,99.90
2019-03-28T04:56:39.350Z,99.90
2019-03-28T04:59:06.899Z,99.90
2019-03-28T05:01:34.553Z,99.90
2019-03-28T05:04:02.227Z,99.90
2019-03-28T05:06:30.030Z,99.90
2019-03-28T05:08:57.894Z,99.90
2019-03-28T05:11:25.561Z,99.90
2019-03-28T05:13:53.425Z,99.90
2019-03-28T05:16:21.246Z,99.90
2019-03-28T05:18:49.145Z,99.90
2019-03-28T05:21:17.270Z,99.90
2019-03-28T05:23:44.961Z,99.90
2019-03-28T05:26:12.939Z,99.90
2019-03-28T05:28:40.826Z,99.90
2019-03-28T05:31:08.609Z,99.90
2019-03-28T05:33:36.586Z,99.90
2019-03-28T05:36:04.679Z,99.90
2019-03-28T05:38:32.537Z,99.90
2019-03-28T05:41:00.242Z,99.90
2019-03-28T05:43:28.066Z,99.90
2019-03-28T05:45:55.760Z,99.90
2019-03-28T05:48:23.822Z,99.90
2019-03-28T05:50:52.021Z,99.90
2019-03-28T05:53:20.532Z,99.90
2019-03-28T05:55:48.476Z,99.90
2019-03-28T05:58:17.581Z,99.90
2019-03-28T06:00:45.494Z,99.90
2019-03-28T06:03:13.145Z,99.90
2019-03-28T06:05:41.135Z,99.90
2019-03-28T06:08:08.913Z,99.90
2019-03-28T06:10:36.733Z,99.90
2019-03-28T06:13:04.574Z,99.90
2019-03-28T06:15:32.315Z,99.90
2019-03-28T06:18:00.200Z,99.90
2019-03-28T06:20:27.967Z,99.90
2019-03-28T06:22:55.907Z,99.90
2019-03-28T06:25:23.800Z,99.90
2019-03-28T06:27:51.945Z,99.90
2019-03-28T06:30:19.931Z,99.90
2019-03-28T06:32:47.627Z,99.90
2019-03-28T06:35:15.521Z,99.90
2019-03-28T06:37:43.260Z,99.90
2019-03-28T06:40:11.221Z,99.90
2019-03-28T06:42:39.083Z,99.90
2019-03-28T06:45:07.936Z,99.90
2019-03-28T06:47:36.903Z,99.90
2019-03-28T06:50:05.995Z,99.90
2019-03-28T06:52:33.922Z,99.90
2019-03-28T06:55:02.864Z,99.90
2019-03-28T06:57:30.858Z,99.90
2019-03-28T06:59:58.707Z,99.90
2019-03-28T07:02:26.725Z,99.90
2019-03-28T07:04:54.526Z,99.90
2019-03-28T07:07:22.691Z,99.90
2019-03-28T07:09:50.640Z,99.90
2019-03-28T07:12:18.476Z,99.90
2019-03-28T07:14:46.456Z,99.90
2019-03-28T07:17:14.287Z,99.90
2019-03-28T07:19:42.127Z,99.90
2019-03-28T07:22:10.353Z,99.90
2019-03-28T07:24:38.399Z,99.90
2019-03-28T07:27:06.177Z,99.90
2019-03-28T07:29:34.019Z,99.90
2019-03-28T07:32:02.035Z,99.90
2019-03-28T07:34:29.801Z,99.90
2019-03-28T07:36:58.729Z,99.90
2019-03-28T07:39:26.298Z,99.90
2019-03-28T07:41:54.142Z,99.90
2019-03-28T07:44:22.482Z,99.90
2019-03-28T07:46:50.352Z,99.90
2019-03-28T07:49:18.330Z,99.90
2019-03-28T07:51:46.276Z,99.90
2019-03-28T07:54:14.580Z,99.90
2019-03-28T07:56:42.456Z,99.90
2019-03-28T07:59:10.354Z,99.90
2019-03-28T08:01:38.401Z,99.90
2019-03-28T08:04:06.207Z,99.90
2019-03-28T08:06:34.131Z,99.90
2019-03-28T08:09:02.162Z,99.90
2019-03-28T08:11:30.974Z,99.90
2019-03-28T08:13:58.910Z,99.90
2019-03-28T08:16:28.821Z,99.90
2019-03-28T08:18:56.474Z,99.90
2019-03-28T08:21:24.590Z,99.90
2019-03-28T08:23:52.552Z,99.90
2019-03-28T08:26:20.525Z,99.90
2019-03-28T08:28:48.465Z,99.90
2019-03-28T08:31:16.274Z,99.90
2019-03-28T08:33:44.346Z,99.90
2019-03-28T08:36:14.229Z,99.90
2019-03-28T08:38:44.298Z,99.90
2019-03-28T08:41:12.182Z,99.90
2019-03-28T08:43:39.883Z,99.90
2019-03-28T08:46:08.900Z,99.90
2019-03-28T08:48:37.283Z,99.90
2019-03-28T08:51:05.191Z,99.90
2019-03-28T08:53:33.058Z,99.90
2019-03-28T08:56:01.074Z,99.90
2019-03-28T08:58:30.007Z,99.90
2019-03-28T09:00:57.946Z,99.90
2019-03-28T09:03:25.782Z,99.90
2019-03-28T09:05:53.611Z,99.90
2019-03-28T09:08:21.529Z,99.90
2019-03-28T09:10:49.383Z,99.90
2019-03-28T09:13:29.053Z,99.90
2019-03-28T09:15:57.065Z,99.90
2019-03-28T09:18:30.687Z,99.90
2019-03-28T09:20:58.553Z,99.90
2019-03-28T09:23:26.458Z,99.90
2019-03-28T09:25:54.255Z,99.90
2019-03-28T09:28:21.962Z,99.90
2019-03-28T09:30:49.916Z,99.90
2019-03-28T09:33:17.908Z,99.90
2019-03-28T09:35:45.992Z,99.90
2019-03-28T09:38:14.014Z,99.90
2019-03-28T09:40:41.877Z,99.90
2019-03-28T09:43:10.839Z,99.90
2019-03-28T09:45:38.759Z,99.90
2019-03-28T09:48:06.570Z,99.90
2019-03-28T09:50:34.351Z,99.90
2019-03-28T09:53:02.164Z,99.90
2019-03-28T09:55:29.923Z,99.90
2019-03-28T09:57:57.649Z,99.90
2019-03-28T10:00:25.442Z,99.90
2019-03-28T10:02:53.298Z,99.90
2019-03-28T10:05:21.237Z,99.90
2019-03-28T10:07:49.128Z,99.90
2019-03-28T10:10:17.040Z,99.90
2019-03-28T10:12:44.895Z,99.90
2019-03-28T10:15:12.902Z,99.90
2019-03-28T10:17:42.476Z,99.90
2019-03-28T10:20:10.679Z,99.90
2019-03-28T10:22:38.491Z,99.90
2019-03-28T10:25:06.834Z,99.90
2019-03-28T10:27:34.574Z,99.90
2019-03-28T10:30:02.956Z,99.90
2019-03-28T10:32:32.359Z,99.90
2019-03-28T10:35:00.570Z,99.90
2019-03-28T10:37:28.345Z,99.90
2019-03-28T10:39:55.901Z,99.90
2019-03-28T10:42:23.431Z,99.20
2019-03-28T10:44:51.008Z,99.30
2019-03-28T10:47:18.673Z,99.30
2019-03-28T10:49:46.233Z,98.10
2019-03-28T10:52:13.729Z,98.20
2019-03-28T10:54:41.196Z,99.30
2019-03-28T10:57:15.584Z,97.80
2019-03-28T10:59:38.254Z,97.10
2019-03-28T11:02:06.240Z,97.70
2019-03-28T11:04:33.825Z,98.10
2019-03-28T11:07:01.387Z,95.20
2019-03-28T11:09:28.890Z,95.60
2019-03-28T11:11:56.556Z,94.70
2019-03-28T11:14:24.022Z,95.20
2019-03-28T11:16:51.504Z,92.50
2019-03-28T11:19:19.148Z,94.50
2019-03-28T11:21:46.750Z,93.30
2019-03-28T11:24:14.377Z,92.80
2019-03-28T11:26:42.007Z,92.40
2019-03-28T11:29:09.583Z,92.80
2019-03-28T11:31:46.313Z,92.20
2019-03-28T11:34:06.981Z,92.60
2019-03-28T11:36:34.794Z,92.70
2019-03-28T11:39:03.629Z,93.70
2019-03-28T11:41:31.192Z,94.20
2019-03-28T11:43:58.927Z,93.20
2019-03-28T11:46:26.498Z,94.20
2019-03-28T11:48:54.262Z,93.90
2019-03-28T11:51:21.826Z,92.00
2019-03-28T11:53:49.413Z,92.40
2019-03-28T11:56:17.001Z,93.00
2019-03-28T11:58:44.573Z,93.00
2019-03-28T12:01:12.204Z,91.60
2019-03-28T12:03:39.800Z,91.20
2019-03-28T12:06:07.354Z,91.30
2019-03-28T12:08:35.941Z,92.30
2019-03-28T12:11:04.698Z,91.40
2019-03-28T12:13:44.212Z,86.30
2019-03-28T12:16:01.932Z,86.10
2019-03-28T12:18:29.677Z,88.00
2019-03-28T12:20:57.269Z,86.80
2019-03-28T12:23:24.855Z,84.60
2019-03-28T12:25:52.296Z,85.70
2019-03-28T12:28:19.733Z,79.80
2019-03-28T12:30:47.202Z,77.70
2019-03-28T12:33:14.653Z,81.40
2019-03-28T12:35:42.448Z,75.60
2019-03-28T12:38:09.905Z,74.30
2019-03-28T12:40:37.382Z,74.90
2019-03-28T12:43:05.017Z,77.30
2019-03-28T12:45:32.542Z,77.60
2019-03-28T12:48:00.113Z,77.70
2019-03-28T12:50:27.681Z,80.40
2019-03-28T12:52:58.137Z,80.40
2019-03-28T12:55:24.505Z,82.00
2019-03-28T12:57:51.961Z,83.60
2019-03-28T13:00:32.594Z,84.30
2019-03-28T13:03:00.271Z,84.90
2019-03-28T13:05:27.837Z,86.30
2019-03-28T13:07:55.517Z,83.30
2019-03-28T13:10:23.098Z,83.50
2019-03-28T13:12:50.930Z,84.20
2019-03-28T13:15:18.394Z,86.00
2019-03-28T13:17:45.846Z,88.00
2019-03-28T13:20:13.421Z,87.00
2019-03-28T13:22:40.914Z,88.60
2019-03-28T13:25:09.005Z,86.90
2019-03-28T13:27:36.970Z,90.20
2019-03-28T13:30:05.095Z,88.60
2019-03-28T13:32:41.806Z,89.50
2019-03-28T13:35:02.829Z,91.00
2019-03-28T13:37:30.306Z,82.10
2019-03-28T13:39:57.793Z,79.40
2019-03-28T13:42:25.351Z,73.60
2019-03-28T13:44:53.015Z,76.30
2019-03-28T13:47:20.605Z,74.10
2019-03-28T13:49:48.084Z,75.90
2019-03-28T13:52:15.549Z,72.90
2019-03-28T13:54:43.046Z,76.80
2019-03-28T13:57:10.629Z,81.70
2019-03-28T13:59:38.178Z,85.40
2019-03-28T14:02:07.044Z,86.80
2019-03-28T14:04:34.748Z,90.20
2019-03-28T14:07:02.402Z,90.60
2019-03-28T14:09:29.870Z,90.70
2019-03-28T14:11:57.426Z,91.90
2019-03-28T14:14:24.972Z,92.30
2019-03-28T14:16:53.254Z,92.70
2019-03-28T14:19:20.839Z,93.50
2019-03-28T14:21:48.409Z,93.10
2019-03-28T14:24:15.982Z,92.40
2019-03-28T14:26:43.531Z,92.50
2019-03-28T14:29:11.158Z,92.20
2019-03-28T14:31:38.813Z,91.60
2019-03-28T14:34:06.393Z,93.50
2019-03-28T14:36:33.946Z,93.00
2019-03-28T14:39:01.435Z,94.20
2019-03-28T14:41:30.905Z,92.90
2019-03-28T14:43:58.479Z,91.90
2019-03-28T14:46:26.181Z,92.60
2019-03-28T14:48:53.951Z,93.50
2019-03-28T14:51:21.822Z,93.50
2019-03-28T14:53:49.322Z,94.80
2019-03-28T14:56:17.224Z,95.70
2019-03-28T14:58:46.884Z,94.90
2019-03-28T15:01:14.450Z,95.50
2019-03-28T15:03:41.901Z,94.90
2019-03-28T15:06:09.424Z,95.10
2019-03-28T15:08:36.891Z,94.80
2019-03-28T15:11:04.646Z,95.50
2019-03-28T15:13:32.177Z,96.00
2019-03-28T15:16:00.025Z,96.60
2019-03-28T15:18:27.711Z,96.60
2019-03-28T15:20:55.285Z,96.50
2019-03-28T15:23:22.882Z,96.60
2019-03-28T15:25:50.334Z,96.50
2019-03-28T15:28:17.884Z,97.00
2019-03-28T15:30:45.542Z,97.20
2019-03-28T15:33:13.143Z,98.10
2019-03-28T15:35:41.734Z,98.00
2019-03-28T15:38:10.208Z,97.20
2019-03-28T15:40:37.849Z,97.90
2019-03-28T15:43:05.415Z,97.70
2019-03-28T15:45:33.669Z,97.50
2019-03-28T15:48:01.365Z,97.80
2019-03-28T15:50:28.844Z,99.10
2019-03-28T15:52:57.529Z,99.00
2019-03-28T15:55:25.249Z,98.20
2019-03-28T15:57:52.793Z,98.50
2019-03-28T16:00:20.461Z,98.30
2019-03-28T16:02:47.914Z,98.60
2019-03-28T16:05:15.651Z,98.30
2019-03-28T16:07:43.239Z,99.40
2019-03-28T16:10:14.775Z,98.80
2019-03-28T16:12:42.339Z,98.80
2019-03-28T16:15:10.453Z,99.20
2019-03-28T16:17:37.930Z,99.20
2019-03-28T16:20:06.081Z,98.80
2019-03-28T16:22:33.841Z,99.60
2019-03-28T16:25:01.311Z,99.30
2019-03-28T16:27:28.893Z,99.20
2019-03-28T16:29:56.737Z,99.90
2019-03-28T16:32:24.175Z,99.50
2019-03-28T16:34:51.635Z,99.90
2019-03-28T16:37:19.476Z,99.80
2019-03-28T16:39:49.800Z,99.70
2019-03-28T16:42:16.541Z,99.90
2019-03-28T16:44:44.243Z,99.70
2019-03-28T16:47:11.881Z,99.90
2019-03-28T16:49:39.462Z,99.90
2019-03-28T16:52:07.105Z,99.90
2019-03-28T16:54:34.638Z,99.90
2019-03-28T16:57:02.395Z,99.70
2019-03-28T16:59:30.239Z,99.90
2019-03-28T17:01:57.923Z,99.90
2019-03-28T17:04:25.473Z,99.90
2019-03-28T17:06:53.301Z,99.90
2019-03-28T17:09:22.029Z,99.90
2019-03-28T17:11:50.023Z,99.90
2019-03-28T17:14:17.745Z,99.90
2019-03-28T17:16:45.327Z,99.90
2019-03-28T17:19:12.886Z,99.90
2019-03-28T17:21:40.514Z,99.90
2019-03-28T17:24:08.390Z,99.90
2019-03-28T17:26:36.406Z,99.90
2019-03-28T17:29:04.355Z,99.90
2019-03-28T17:31:32.378Z,99.90
2019-03-28T17:34:00.267Z,99.90
2019-03-28T17:36:28.257Z,99.90
2019-03-28T17:38:56.379Z,99.90
2019-03-28T17:41:24.174Z,99.90
2019-03-28T17:43:52.058Z,99.90
2019-03-28T17:46:21.242Z,99.90
2019-03-28T17:48:49.108Z,99.90
2019-03-28T17:51:21.541Z,99.90
2019-03-28T17:53:50.606Z,99.90
2019-03-28T17:56:18.850Z,99.90
2019-03-28T17:58:46.837Z,99.90
2019-03-28T18:01:15.020Z,99.90
2019-03-28T18:03:43.027Z,99.90
2019-03-28T18:06:10.931Z,99.90
2019-03-28T18:08:38.875Z,99.90
2019-03-28T18:11:06.877Z,99.90
2019-03-28T18:13:35.036Z,99.90
2019-03-28T18:16:02.964Z,99.90
2019-03-28T18:18:30.855Z,99.90
2019-03-28T18:20:58.651Z,99.90
2019-03-28T18:23:27.476Z,99.90
2019-03-28T18:25:55.395Z,99.90
2019-03-28T18:28:23.105Z,99.90
2019-03-28T18:30:51.313Z,99.90
2019-03-28T18:33:19.245Z,99.90
2019-03-28T18:35:47.282Z,99.90
2019-03-28T18:38:15.157Z,99.90
2019-03-28T18:40:43.039Z,99.90
2019-03-28T18:43:10.722Z,99.90
2019-03-28T18:45:38.633Z,99.90
2019-03-28T18:48:09.020Z,99.90
2019-03-28T18:50:36.336Z,99.90
2019-03-28T18:53:04.170Z,99.90
2019-03-28T18:55:32.014Z,99.90
2019-03-28T18:57:59.845Z,99.90
2019-03-28T19:00:27.988Z,99.90
2019-03-28T19:02:55.784Z,99.90
2019-03-28T19:05:23.593Z,99.90
2019-03-28T19:07:51.257Z,99.90
2019-03-28T19:10:19.371Z,99.90
2019-03-28T19:12:47.835Z,99.90
2019-03-28T19:15:15.953Z,99.90
2019-03-28T19:17:43.786Z,99.90
2019-03-28T19:20:11.753Z,99.90
2019-03-28T19:22:39.658Z,99.90
2019-03-28T19:25:09.917Z,99.90
2019-03-28T19:27:37.829Z,99.90
2019-03-28T19:30:06.774Z,99.90
2019-03-28T19:32:34.497Z,99.90
2019-03-28T19:35:03.359Z,99.90
2019-03-28T19:37:31.653Z,99.90
2019-03-28T19:39:59.478Z,99.90
2019-03-28T19:42:27.278Z,99.90
2019-03-28T19:44:55.221Z,99.90
2019-03-28T19:47:23.067Z,99.90
2019-03-28T19:49:50.790Z,99.90
2019-03-28T19:52:18.605Z,99.90
2019-03-28T19:54:46.436Z,99.90
2019-03-28T19:57:14.354Z,99.90
2019-03-28T19:59:42.326Z,99.90
2019-03-28T20:02:10.301Z,99.90
2019-03-28T20:04:38.038Z,99.90
2019-03-28T20:07:05.902Z,99.90
2019-03-28T20:09:33.605Z,99.90
2019-03-28T20:12:03.396Z,99.90
2019-03-28T20:14:31.081Z,99.90
2019-03-28T20:17:00.163Z,99.90
2019-03-28T20:19:28.979Z,99.90
2019-03-28T20:21:59.373Z,99.90
2019-03-28T20:24:26.478Z,99.90
2019-03-28T20:26:54.466Z,99.90
2019-03-28T20:29:22.520Z,99.90
2019-03-28T20:31:50.382Z,99.90
2019-03-28T20:34:18.152Z,99.90
2019-03-28T20:36:45.918Z,99.90
2019-03-28T20:39:13.872Z,99.90
2019-03-28T20:41:42.740Z,99.90
2019-03-28T20:44:11.756Z,99.90
2019-03-28T20:46:40.948Z,99.90
2019-03-28T20:49:08.981Z,99.90
2019-03-28T20:51:36.808Z,99.90
2019-03-28T20:54:07.637Z,99.90
2019-03-28T20:56:35.387Z,99.90
2019-03-28T20:59:03.257Z,99.90
2019-03-28T21:01:31.153Z,99.90
2019-03-28T21:03:59.019Z,99.90
2019-03-28T21:06:27.028Z,99.90
2019-03-28T21:08:55.154Z,99.90
2019-03-28T21:11:23.172Z,99.90
2019-03-28T21:13:51.118Z,99.90
2019-03-28T21:16:19.117Z,99.90
2019-03-28T21:18:47.009Z,99.90
2019-03-28T21:21:15.009Z,99.90
2019-03-28T21:23:43.941Z,99.90
2019-03-28T21:26:12.291Z,99.90
2019-03-28T21:28:47.057Z,99.90
2019-03-28T21:31:10.052Z,99.90
2019-03-28T21:33:39.142Z,99.90
2019-03-28T21:36:07.605Z,99.90
2019-03-28T21:38:35.751Z,99.90
2019-03-28T21:41:03.839Z,99.90
2019-03-28T21:43:31.883Z,99.90
2019-03-28T21:46:01.235Z,99.90
2019-03-28T21:48:29.668Z,99.90
2019-03-28T21:50:57.567Z,99.90
2019-03-28T21:53:25.363Z,99.90
2019-03-28T21:55:55.566Z,99.90
2019-03-28T21:58:22.841Z,99.90
2019-03-28T22:00:50.548Z,99.90
2019-03-28T22:03:18.250Z,99.90
2019-03-28T22:05:46.201Z,99.90
2019-03-28T22:08:14.003Z,99.90
2019-03-28T22:10:42.382Z,99.90
2019-03-28T22:13:12.333Z,99.90
2019-03-28T22:15:40.187Z,99.90
2019-03-28T22:18:08.513Z,99.90
2019-03-28T22:20:36.371Z,99.90
2019-03-28T22:23:08.851Z,99.90
2019-03-28T22:25:37.423Z,99.90
2019-03-28T22:28:05.325Z,99.90
2019-03-28T22:30:33.173Z,99.90
2019-03-28T22:33:00.907Z,99.90
2019-03-28T22:35:29.960Z,99.90
2019-03-28T22:37:57.859Z,99.90
2019-03-28T22:40:25.465Z,99.90
2019-03-28T22:42:53.013Z,99.90
2019-03-28T22:45:20.560Z,99.90
2019-03-28T22:47:48.136Z,99.90
2019-03-28T22:50:15.676Z,99.90
2019-03-28T22:52:43.124Z,99.90
2019-03-28T22:55:11.042Z,99.90
2019-03-28T22:57:38.571Z,99.90
2019-03-28T23:00:10.250Z,99.90
2019-03-28T23:02:39.803Z,99.90
2019-03-28T23:05:08.857Z,99.90
2019-03-28T23:07:36.324Z,99.90
2019-03-28T23:10:04.655Z,99.90
2019-03-28T23:12:32.216Z,99.90
2019-03-28T23:14:59.671Z,99.90
2019-03-28T23:17:27.097Z,99.90
2019-03-28T23:19:54.890Z,99.90
2019-03-28T23:22:22.438Z,99.90
2019-03-28T23:24:50.102Z,99.90
2019-03-28T23:27:17.825Z,99.90
2019-03-28T23:29:45.523Z,99.90
2019-03-28T23:32:13.199Z,99.90
2019-03-28T23:34:40.774Z,99.90
2019-03-28T23:37:08.240Z,99.90
2019-03-28T23:39:35.962Z,99.90
2019-03-28T23:42:03.410Z,99.90
2019-03-28T23:44:31.316Z,99.90
2019-03-28T23:46:59.991Z,99.90
2019-03-28T23:49:27.586Z,99.90
2019-03-28T23:51:55.102Z,99.90
2019-03-28T23:54:22.621Z,99.90
2019-03-28T23:56:50.093Z,99.90
2019-03-28T23:59:17.726Z,99.90
